Terminal Aerodrome Forecast
Issued by NWS Tulsa, OK

Home | Current Version | Previous Version | Text Only | Print | Product List | Glossary On
Versions: 1 2 3 4 5 6 7 8 9 10 11 12 13 14 15
380
FTUS44 KTSA 251926 AAA
TAFTUL
TAF AMD
KTUL 251926Z 2519/2618 33012G18KT P6SM VCSH SCT015 BKN040
      TEMPO 2519/2522 1SM RA BKN015
     FM260000 36006KT P6SM BKN050
     FM260900 35005KT P6SM SKC=

USA.gov is the U.S. government's official web portal to all federal, state and local government web resources and services.